Terminal Aerodrome Forecast
Issued by NWS

Home | Current Version | Previous Version | Text Only | Print | Product List | Glossary Off
Versions: 1 2 3 4 5 6 7 8 9 10 11 12 13 14 15 16 17

290
FTUS43 KABR 061137
TAFMBG
TAF
KMBG 061137Z 0612/0712 19009KT P6SM BKN150
     FM061600 24014KT P6SM BKN150
     FM070000 29025G35KT P6SM BKN100
     FM070800 30030G40KT P6SM BKN150=

USA.gov is the U.S. government's official web portal to all federal, state and local government web resources and services.